sensor_id;sensor_type;location;lat;lon;timestamp;pressure;altitude;pressure_sealevel;temperature;humidity
10466;BME280;5280;42.600;23.556;2024-03-08T00:00:52;93418.25;;;5.88;100.00
10466;BME280;5280;42.600;23.556;2024-03-08T00:03:19;93404.31;;;5.87;100.00
10466;BME280;5280;42.600;23.556;2024-03-08T00:05:47;93406.63;;;5.78;100.00
10466;BME280;5280;42.600;23.556;2024-03-08T00:08:14;93399.00;;;5.73;100.00
10466;BME280;5280;42.600;23.556;2024-03-08T00:10:46;93379.63;;;5.61;100.00
10466;BME280;5280;42.600;23.556;2024-03-08T00:13:13;93404.81;;;5.78;100.00
10466;BME280;5280;42.600;23.556;2024-03-08T00:15:40;93404.66;;;5.81;100.00
10466;BME280;5280;42.600;23.556;2024-03-08T00:18:08;93392.66;;;5.77;100.00
10466;BME280;5280;42.600;23.556;2024-03-08T00:20:35;93405.13;;;5.88;100.00
10466;BME280;5280;42.600;23.556;2024-03-08T00:23:04;93394.88;;;5.83;100.00
10466;BME280;5280;42.600;23.556;2024-03-08T00:25:31;93294.53;;;5.25;100.00
10466;BME280;5280;42.600;23.556;2024-03-08T00:27:58;93376.44;;;5.71;100.00
10466;BME280;5280;42.600;23.556;2024-03-08T00:30:27;93394.38;;;5.92;100.00
10466;BME280;5280;42.600;23.556;2024-03-08T00:32:56;93342.16;;;5.45;100.00
10466;BME280;5280;42.600;23.556;2024-03-08T00:35:23;93319.34;;;5.47;100.00
10466;BME280;5280;42.600;23.556;2024-03-08T00:37:50;93341.69;;;5.53;100.00
10466;BME280;5280;42.600;23.556;2024-03-08T00:40:19;93383.88;;;5.92;100.00
10466;BME280;5280;42.600;23.556;2024-03-08T00:42:46;93384.16;;;5.88;100.00
10466;BME280;5280;42.600;23.556;2024-03-08T00:45:13;93316.72;;;5.47;100.00
10466;BME280;5280;42.600;23.556;2024-03-08T00:47:42;93256.56;;;5.17;100.00
10466;BME280;5280;42.600;23.556;2024-03-08T00:50:10;93366.81;;;5.85;100.00
10466;BME280;5280;42.600;23.556;2024-03-08T00:52:41;93370.03;;;5.90;100.00
10466;BME280;5280;42.600;23.556;2024-03-08T00:55:08;93335.44;;;5.55;100.00
10466;BME280;5280;42.600;23.556;2024-03-08T00:57:37;93339.28;;;5.64;100.00
10466;BME280;5280;42.600;23.556;2024-03-08T01:00:06;93359.66;;;5.73;100.00
10466;BME280;5280;42.600;23.556;2024-03-08T01:02:37;93369.16;;;5.76;100.00
10466;BME280;5280;42.600;23.556;2024-03-08T01:05:05;93296.50;;;5.35;100.00
10466;BME280;5280;42.600;23.556;2024-03-08T01:07:34;93335.34;;;5.57;100.00
10466;BME280;5280;42.600;23.556;2024-03-08T01:10:02;93363.34;;;5.71;100.00
10466;BME280;5280;42.600;23.556;2024-03-08T01:12:29;93361.28;;;5.61;100.00
10466;BME280;5280;42.600;23.556;2024-03-08T01:14:57;93280.84;;;5.05;100.00
10466;BME280;5280;42.600;23.556;2024-03-08T01:17:24;93261.56;;;4.92;100.00
10466;BME280;5280;42.600;23.556;2024-03-08T01:19:52;93299.19;;;5.19;100.00
10466;BME280;5280;42.600;23.556;2024-03-08T01:22:19;93354.25;;;5.48;100.00
10466;BME280;5280;42.600;23.556;2024-03-08T01:24:48;93345.16;;;5.39;100.00
10466;BME280;5280;42.600;23.556;2024-03-08T01:27:15;93354.91;;;5.51;100.00
10466;BME280;5280;42.600;23.556;2024-03-08T01:29:42;93340.69;;;5.55;100.00
10466;BME280;5280;42.600;23.556;2024-03-08T01:32:10;93280.00;;;5.19;100.00
10466;BME280;5280;42.600;23.556;2024-03-08T01:34:40;93271.88;;;5.24;100.00
10466;BME280;5280;42.600;23.556;2024-03-08T01:37:07;93346.84;;;5.69;100.00
10466;BME280;5280;42.600;23.556;2024-03-08T01:39:34;93288.91;;;5.31;100.00
10466;BME280;5280;42.600;23.556;2024-03-08T01:42:01;93237.63;;;4.98;100.00
10466;BME280;5280;42.600;23.556;2024-03-08T01:44:28;93330.56;;;5.63;100.00
10466;BME280;5280;42.600;23.556;2024-03-08T01:53:42;93343.13;;;5.73;100.00
10466;BME280;5280;42.600;23.556;2024-03-08T01:56:12;93313.53;;;5.42;100.00
10466;BME280;5280;42.600;23.556;2024-03-08T01:58:41;93337.03;;;5.72;100.00
10466;BME280;5280;42.600;23.556;2024-03-08T02:01:11;93349.19;;;5.73;100.00
10466;BME280;5280;42.600;23.556;2024-03-08T02:03:40;93279.94;;;5.35;100.00
10466;BME280;5280;42.600;23.556;2024-03-08T02:06:09;93335.34;;;5.71;100.00
10466;BME280;5280;42.600;23.556;2024-03-08T02:08:41;93291.72;;;5.42;100.00
10466;BME280;5280;42.600;23.556;2024-03-08T02:11:10;93327.50;;;5.57;100.00
10466;BME280;5280;42.600;23.556;2024-03-08T02:13:37;93325.97;;;5.53;100.00
10466;BME280;5280;42.600;23.556;2024-03-08T02:16:05;93313.81;;;5.38;100.00
10466;BME280;5280;42.600;23.556;2024-03-08T02:18:34;93343.50;;;5.67;100.00
10466;BME280;5280;42.600;23.556;2024-03-08T02:21:03;93348.53;;;5.70;100.00
10466;BME280;5280;42.600;23.556;2024-03-08T02:23:32;93320.00;;;5.65;100.00
10466;BME280;5280;42.600;23.556;2024-03-08T02:25:59;93248.69;;;5.17;100.00
10466;BME280;5280;42.600;23.556;2024-03-08T02:28:26;93339.19;;;5.66;100.00
10466;BME280;5280;42.600;23.556;2024-03-08T02:30:54;93217.34;;;5.02;100.00
10466;BME280;5280;42.600;23.556;2024-03-08T02:33:22;93333.56;;;5.72;100.00
10466;BME280;5280;42.600;23.556;2024-03-08T02:35:49;93308.03;;;5.47;100.00
10466;BME280;5280;42.600;23.556;2024-03-08T02:38:19;93339.09;;;5.67;100.00
10466;BME280;5280;42.600;23.556;2024-03-08T02:40:48;93361.94;;;5.79;100.00
10466;BME280;5280;42.600;23.556;2024-03-08T02:43:16;93306.31;;;5.46;100.00
10466;BME280;5280;42.600;23.556;2024-03-08T02:45:43;93286.00;;;5.35;100.00
10466;BME280;5280;42.600;23.556;2024-03-08T02:48:14;93302.88;;;5.45;100.00
10466;BME280;5280;42.600;23.556;2024-03-08T02:50:41;93282.53;;;5.35;100.00
10466;BME280;5280;42.600;23.556;2024-03-08T02:53:10;93354.84;;;5.67;100.00
10466;BME280;5280;42.600;23.556;2024-03-08T02:55:39;93290.78;;;5.29;100.00
10466;BME280;5280;42.600;23.556;2024-03-08T02:58:07;93363.25;;;5.72;100.00
10466;BME280;5280;42.600;23.556;2024-03-08T03:00:35;93360.06;;;5.67;100.00
10466;BME280;5280;42.600;23.556;2024-03-08T03:03:03;93366.59;;;5.60;100.00
10466;BME280;5280;42.600;23.556;2024-03-08T03:05:30;93363.13;;;5.59;100.00
10466;BME280;5280;42.600;23.556;2024-03-08T03:07:56;93256.91;;;4.97;100.00
10466;BME280;5280;42.600;23.556;2024-03-08T03:10:24;93365.28;;;5.53;100.00
10466;BME280;5280;42.600;23.556;2024-03-08T03:12:52;93321.47;;;5.27;100.00
10466;BME280;5280;42.600;23.556;2024-03-08T03:15:19;93327.94;;;5.35;100.00
10466;BME280;5280;42.600;23.556;2024-03-08T03:17:46;93334.94;;;5.35;100.00
10466;BME280;5280;42.600;23.556;2024-03-08T03:20:14;93305.00;;;5.10;100.00
10466;BME280;5280;42.600;23.556;2024-03-08T03:22:48;93379.63;;;5.47;100.00
10466;BME280;5280;42.600;23.556;2024-03-08T03:25:18;93302.28;;;4.98;100.00
10466;BME280;5280;42.600;23.556;2024-03-08T03:27:52;93285.50;;;4.86;100.00
10466;BME280;5280;42.600;23.556;2024-03-08T03:30:22;93379.97;;;5.27;100.00
10466;BME280;5280;42.600;23.556;2024-03-08T03:32:49;93388.41;;;5.32;100.00
10466;BME280;5280;42.600;23.556;2024-03-08T03:35:17;93381.75;;;5.27;100.00
10466;BME280;5280;42.600;23.556;2024-03-08T03:37:44;93337.28;;;4.81;100.00
10466;BME280;5280;42.600;23.556;2024-03-08T03:40:27;93377.34;;;4.97;100.00
10466;BME280;5280;42.600;23.556;2024-03-08T03:42:55;93374.13;;;5.08;100.00
10466;BME280;5280;42.600;23.556;2024-03-08T03:45:22;93384.13;;;5.15;100.00
10466;BME280;5280;42.600;23.556;2024-03-08T03:47:49;93302.63;;;4.62;100.00
10466;BME280;5280;42.600;23.556;2024-03-08T03:50:17;93392.75;;;5.17;100.00
10466;BME280;5280;42.600;23.556;2024-03-08T03:52:45;93306.53;;;4.55;100.00
10466;BME280;5280;42.600;23.556;2024-03-08T03:55:14;93389.88;;;4.92;100.00
10466;BME280;5280;42.600;23.556;2024-03-08T03:57:42;93403.44;;;4.99;100.00
10466;BME280;5280;42.600;23.556;2024-03-08T04:00:13;93399.81;;;5.01;100.00
10466;BME280;5280;42.600;23.556;2024-03-08T04:02:43;93307.97;;;4.45;100.00
10466;BME280;5280;42.600;23.556;2024-03-08T04:05:11;93370.41;;;4.66;100.00
10466;BME280;5280;42.600;23.556;2024-03-08T04:07:40;93371.41;;;4.64;100.00
10466;BME280;5280;42.600;23.556;2024-03-08T04:10:09;93406.34;;;4.78;100.00
10466;BME280;5280;42.600;23.556;2024-03-08T04:12:37;93403.00;;;4.76;100.00
10466;BME280;5280;42.600;23.556;2024-03-08T04:15:05;93409.41;;;4.71;100.00
10466;BME280;5280;42.600;23.556;2024-03-08T04:17:34;93416.00;;;4.78;100.00
10466;BME280;5280;42.600;23.556;2024-03-08T04:20:02;93379.31;;;4.48;100.00
10466;BME280;5280;42.600;23.556;2024-03-08T04:22:35;93364.28;;;4.52;100.00
10466;BME280;5280;42.600;23.556;2024-03-08T04:25:02;93353.50;;;4.42;100.00
10466;BME280;5280;42.600;23.556;2024-03-08T04:27:29;93415.00;;;4.49;100.00
10466;BME280;5280;42.600;23.556;2024-03-08T04:29:58;93425.06;;;4.57;100.00
10466;BME280;5280;42.600;23.556;2024-03-08T04:32:25;93432.72;;;4.60;100.00
10466;BME280;5280;42.600;23.556;2024-03-08T04:34:53;93394.31;;;4.29;100.00
10466;BME280;5280;42.600;23.556;2024-03-08T04:37:20;93416.63;;;4.36;100.00
10466;BME280;5280;42.600;23.556;2024-03-08T04:39:47;93420.06;;;4.37;100.00
10466;BME280;5280;42.600;23.556;2024-03-08T04:42:14;93451.81;;;4.46;100.00
10466;BME280;5280;42.600;23.556;2024-03-08T04:44:46;93443.69;;;4.35;100.00
10466;BME280;5280;42.600;23.556;2024-03-08T04:47:13;93428.00;;;4.19;100.00
10466;BME280;5280;42.600;23.556;2024-03-08T04:49:40;93437.97;;;4.13;100.00
10466;BME280;5280;42.600;23.556;2024-03-08T04:52:09;93338.34;;;3.37;100.00
10466;BME280;5280;42.600;23.556;2024-03-08T04:54:36;93452.09;;;3.93;100.00
10466;BME280;5280;42.600;23.556;2024-03-08T04:57:03;93353.31;;;3.34;100.00
10466;BME280;5280;42.600;23.556;2024-03-08T04:59:30;93451.63;;;3.85;100.00
10466;BME280;5280;42.600;23.556;2024-03-08T05:01:57;93342.84;;;3.18;100.00
10466;BME280;5280;42.600;23.556;2024-03-08T05:04:24;93406.06;;;3.58;100.00
10466;BME280;5280;42.600;23.556;2024-03-08T05:06:54;93367.44;;;3.30;100.00
10466;BME280;5280;42.600;23.556;2024-03-08T05:09:22;93459.00;;;3.94;100.00
10466;BME280;5280;42.600;23.556;2024-03-08T05:11:52;93428.16;;;3.68;100.00
10466;BME280;5280;42.600;23.556;2024-03-08T05:14:27;93405.59;;;3.50;100.00
10466;BME280;5280;42.600;23.556;2024-03-08T05:16:55;93422.16;;;3.66;100.00
10466;BME280;5280;42.600;23.556;2024-03-08T05:19:22;93468.34;;;3.82;100.00
10466;BME280;5280;42.600;23.556;2024-03-08T05:21:49;93481.66;;;3.78;100.00
10466;BME280;5280;42.600;23.556;2024-03-08T05:24:16;93463.19;;;3.64;100.00
10466;BME280;5280;42.600;23.556;2024-03-08T05:26:48;93490.09;;;3.83;100.00
10466;BME280;5280;42.600;23.556;2024-03-08T05:29:15;93465.69;;;3.50;100.00
10466;BME280;5280;42.600;23.556;2024-03-08T05:31:46;93437.72;;;3.34;100.00
10466;BME280;5280;42.600;23.556;2024-03-08T05:34:13;93486.88;;;3.61;100.00
10466;BME280;5280;42.600;23.556;2024-03-08T05:36:40;93477.22;;;3.63;100.00
10466;BME280;5280;42.600;23.556;2024-03-08T05:39:09;93497.47;;;3.75;100.00
10466;BME280;5280;42.600;23.556;2024-03-08T05:41:37;93450.09;;;3.48;100.00
10466;BME280;5280;42.600;23.556;2024-03-08T05:44:06;93493.31;;;3.71;100.00
10466;BME280;5280;42.600;23.556;2024-03-08T05:46:33;93492.59;;;3.84;100.00
10466;BME280;5280;42.600;23.556;2024-03-08T05:49:00;93507.97;;;3.90;100.00
10466;BME280;5280;42.600;23.556;2024-03-08T05:51:33;93442.16;;;3.50;100.00
10466;BME280;5280;42.600;23.556;2024-03-08T05:54:01;93516.00;;;3.87;100.00
10466;BME280;5280;42.600;23.556;2024-03-08T05:56:32;93509.25;;;3.83;100.00
10466;BME280;5280;42.600;23.556;2024-03-08T05:58:59;93434.91;;;3.22;100.00
10466;BME280;5280;42.600;23.556;2024-03-08T06:01:27;93458.19;;;3.43;100.00
10466;BME280;5280;42.600;23.556;2024-03-08T06:03:55;93523.66;;;3.90;100.00
10466;BME280;5280;42.600;23.556;2024-03-08T06:06:23;93514.69;;;3.79;100.00
10466;BME280;5280;42.600;23.556;2024-03-08T06:08:50;93516.06;;;3.69;100.00
10466;BME280;5280;42.600;23.556;2024-03-08T06:11:20;93513.63;;;3.66;100.00
10466;BME280;5280;42.600;23.556;2024-03-08T06:13:48;93531.97;;;3.81;100.00
10466;BME280;5280;42.600;23.556;2024-03-08T06:16:16;93511.94;;;3.65;100.00
10466;BME280;5280;42.600;23.556;2024-03-08T06:18:44;93516.31;;;3.81;100.00
10466;BME280;5280;42.600;23.556;2024-03-08T06:21:12;93470.06;;;3.49;100.00
10466;BME280;5280;42.600;23.556;2024-03-08T06:23:39;93502.88;;;3.55;100.00
10466;BME280;5280;42.600;23.556;2024-03-08T06:26:07;93501.16;;;3.71;100.00
10466;BME280;5280;42.600;23.556;2024-03-08T06:28:34;93537.97;;;4.01;100.00
10466;BME280;5280;42.600;23.556;2024-03-08T06:31:02;93540.00;;;4.11;100.00
10466;BME280;5280;42.600;23.556;2024-03-08T06:33:29;93549.81;;;4.08;100.00
10466;BME280;5280;42.600;23.556;2024-03-08T06:35:59;93552.91;;;4.14;100.00
10466;BME280;5280;42.600;23.556;2024-03-08T06:38:26;93543.66;;;4.24;100.00
10466;BME280;5280;42.600;23.556;2024-03-08T06:40:53;93483.78;;;3.87;100.00
10466;BME280;5280;42.600;23.556;2024-03-08T06:43:20;93550.88;;;4.37;100.00
10466;BME280;5280;42.600;23.556;2024-03-08T06:45:47;93499.41;;;4.04;100.00
10466;BME280;5280;42.600;23.556;2024-03-08T06:48:15;93538.72;;;4.36;100.00
10466;BME280;5280;42.600;23.556;2024-03-08T06:50:48;93554.94;;;4.42;100.00
10466;BME280;5280;42.600;23.556;2024-03-08T06:53:16;93548.50;;;4.32;100.00
10466;BME280;5280;42.600;23.556;2024-03-08T06:55:44;93552.59;;;4.38;100.00
10466;BME280;5280;42.600;23.556;2024-03-08T06:58:11;93530.53;;;4.26;100.00
10466;BME280;5280;42.600;23.556;2024-03-08T07:00:38;93560.53;;;4.52;100.00
10466;BME280;5280;42.600;23.556;2024-03-08T07:03:07;93559.13;;;4.62;100.00
10466;BME280;5280;42.600;23.556;2024-03-08T07:05:37;93557.00;;;4.68;100.00
10466;BME280;5280;42.600;23.556;2024-03-08T07:08:05;93551.34;;;4.76;100.00
10466;BME280;5280;42.600;23.556;2024-03-08T07:10:34;93509.38;;;4.46;100.00
10466;BME280;5280;42.600;23.556;2024-03-08T07:13:02;93555.34;;;4.83;100.00
10466;BME280;5280;42.600;23.556;2024-03-08T07:15:30;93560.94;;;4.93;100.00
10466;BME280;5280;42.600;23.556;2024-03-08T07:18:00;93540.19;;;4.88;100.00
10466;BME280;5280;42.600;23.556;2024-03-08T07:20:26;93565.13;;;4.95;100.00
10466;BME280;5280;42.600;23.556;2024-03-08T07:22:54;93544.09;;;4.81;100.00
10466;BME280;5280;42.600;23.556;2024-03-08T07:25:21;93567.16;;;4.90;100.00
10466;BME280;5280;42.600;23.556;2024-03-08T07:27:51;93537.25;;;4.78;100.00
10466;BME280;5280;42.600;23.556;2024-03-08T07:30:19;93520.28;;;4.70;100.00
10466;BME280;5280;42.600;23.556;2024-03-08T07:33:04;93556.50;;;4.93;100.00
10466;BME280;5280;42.600;23.556;2024-03-08T07:35:35;93555.84;;;5.05;100.00
10466;BME280;5280;42.600;23.556;2024-03-08T07:40:31;93543.00;;;5.16;100.00
10466;BME280;5280;42.600;23.556;2024-03-08T07:42:59;93549.75;;;5.20;100.00
10466;BME280;5280;42.600;23.556;2024-03-08T07:45:26;93527.44;;;5.13;100.00
10466;BME280;5280;42.600;23.556;2024-03-08T07:47:53;93557.00;;;5.31;100.00
10466;BME280;5280;42.600;23.556;2024-03-08T07:50:21;93557.53;;;5.38;100.00
10466;BME280;5280;42.600;23.556;2024-03-08T07:52:48;93515.28;;;5.12;100.00
10466;BME280;5280;42.600;23.556;2024-03-08T07:55:15;93486.56;;;4.95;100.00
10466;BME280;5280;42.600;23.556;2024-03-08T07:57:42;93548.31;;;5.31;100.00
10466;BME280;5280;42.600;23.556;2024-03-08T08:00:12;93576.25;;;5.61;100.00
10466;BME280;5280;42.600;23.556;2024-03-08T08:02:43;93525.38;;;5.34;100.00
10466;BME280;5280;42.600;23.556;2024-03-08T08:05:11;93565.53;;;5.80;100.00
10466;BME280;5280;42.600;23.556;2024-03-08T08:07:39;93536.03;;;5.47;100.00
10466;BME280;5280;42.600;23.556;2024-03-08T08:10:09;93560.63;;;5.74;100.00
10466;BME280;5280;42.600;23.556;2024-03-08T08:12:42;93518.22;;;5.38;100.00
10466;BME280;5280;42.600;23.556;2024-03-08T08:15:11;93509.34;;;5.54;100.00
10466;BME280;5280;42.600;23.556;2024-03-08T08:17:38;93548.94;;;5.80;100.00
10466;BME280;5280;42.600;23.556;2024-03-08T08:20:06;93566.66;;;6.06;100.00
10466;BME280;5280;42.600;23.556;2024-03-08T08:22:32;93542.19;;;5.91;100.00
10466;BME280;5280;42.600;23.556;2024-03-08T08:24:59;93562.25;;;6.07;100.00
10466;BME280;5280;42.600;23.556;2024-03-08T08:27:27;93550.72;;;5.95;100.00
10466;BME280;5280;42.600;23.556;2024-03-08T08:29:54;93558.97;;;6.03;100.00
10466;BME280;5280;42.600;23.556;2024-03-08T08:32:22;93561.53;;;6.19;100.00
10466;BME280;5280;42.600;23.556;2024-03-08T08:34:49;93557.59;;;6.12;100.00
10466;BME280;5280;42.600;23.556;2024-03-08T08:37:16;93552.28;;;6.27;100.00
10466;BME280;5280;42.600;23.556;2024-03-08T08:39:43;93586.50;;;6.40;100.00
10466;BME280;5280;42.600;23.556;2024-03-08T08:42:12;93569.31;;;6.48;100.00
10466;BME280;5280;42.600;23.556;2024-03-08T08:44:42;93576.66;;;6.58;100.00
10466;BME280;5280;42.600;23.556;2024-03-08T08:47:10;93574.03;;;6.58;100.00
10466;BME280;5280;42.600;23.556;2024-03-08T08:49:38;93552.94;;;6.59;100.00
10466;BME280;5280;42.600;23.556;2024-03-08T08:52:05;93563.25;;;6.62;100.00
10466;BME280;5280;42.600;23.556;2024-03-08T08:54:32;93562.50;;;6.74;100.00
10466;BME280;5280;42.600;23.556;2024-03-08T08:56:59;93565.03;;;6.90;100.00
10466;BME280;5280;42.600;23.556;2024-03-08T08:59:33;93546.84;;;6.87;100.00
10466;BME280;5280;42.600;23.556;2024-03-08T09:02:01;93554.41;;;7.06;100.00
10466;BME280;5280;42.600;23.556;2024-03-08T09:04:29;93528.31;;;6.88;100.00
10466;BME280;5280;42.600;23.556;2024-03-08T09:06:57;93561.06;;;7.11;100.00
10466;BME280;5280;42.600;23.556;2024-03-08T09:09:24;93558.97;;;7.16;100.00
10466;BME280;5280;42.600;23.556;2024-03-08T09:11:51;93540.19;;;7.08;100.00
10466;BME280;5280;42.600;23.556;2024-03-08T09:14:19;93530.53;;;7.09;100.00
10466;BME280;5280;42.600;23.556;2024-03-08T09:16:47;93547.31;;;7.20;100.00
10466;BME280;5280;42.600;23.556;2024-03-08T09:19:13;93565.22;;;7.28;100.00
10466;BME280;5280;42.600;23.556;2024-03-08T09:21:40;93497.91;;;6.99;100.00
10466;BME280;5280;42.600;23.556;2024-03-08T09:24:09;93566.47;;;7.49;97.86
10466;BME280;5280;42.600;23.556;2024-03-08T09:26:36;93559.78;;;7.58;96.75
10466;BME280;5280;42.600;23.556;2024-03-08T09:29:03;93562.25;;;7.73;97.73
10466;BME280;5280;42.600;23.556;2024-03-08T09:31:32;93562.47;;;7.70;93.82
10466;BME280;5280;42.600;23.556;2024-03-08T09:33:59;93554.19;;;7.76;96.59
10466;BME280;5280;42.600;23.556;2024-03-08T09:36:27;93572.00;;;7.86;94.52
10466;BME280;5280;42.600;23.556;2024-03-08T09:38:53;93567.66;;;7.85;92.63
10466;BME280;5280;42.600;23.556;2024-03-08T09:41:22;93561.16;;;7.63;92.98
10466;BME280;5280;42.600;23.556;2024-03-08T09:43:49;93562.47;;;7.70;92.52
10466;BME280;5280;42.600;23.556;2024-03-08T09:46:16;93551.56;;;7.50;95.38
10466;BME280;5280;42.600;23.556;2024-03-08T09:48:45;93455.53;;;6.90;96.24
10466;BME280;5280;42.600;23.556;2024-03-08T09:51:13;93534.78;;;7.38;97.38
10466;BME280;5280;42.600;23.556;2024-03-08T09:53:41;93544.41;;;7.52;97.59
10466;BME280;5280;42.600;23.556;2024-03-08T09:56:08;93561.16;;;7.63;95.80
10466;BME280;5280;42.600;23.556;2024-03-08T09:58:38;93535.47;;;7.54;95.46
10466;BME280;5280;42.600;23.556;2024-03-08T10:01:19;93561.91;;;7.65;94.19
10466;BME280;5280;42.600;23.556;2024-03-08T10:03:47;93561.56;;;7.57;94.06
10466;BME280;5280;42.600;23.556;2024-03-08T10:06:15;93569.22;;;7.74;94.01
10466;BME280;5280;42.600;23.556;2024-03-08T10:08:42;93564.09;;;7.86;95.49
10466;BME280;5280;42.600;23.556;2024-03-08T10:11:10;93553.66;;;7.84;94.32
10466;BME280;5280;42.600;23.556;2024-03-08T10:13:39;93555.38;;;7.98;91.93
10466;BME280;5280;42.600;23.556;2024-03-08T10:16:07;93555.66;;;7.81;90.57
10466;BME280;5280;42.600;23.556;2024-03-08T10:18:34;93546.69;;;7.70;91.55
10466;BME280;5280;42.600;23.556;2024-03-08T10:21:05;93552.28;;;7.78;93.54
10466;BME280;5280;42.600;23.556;2024-03-08T10:23:34;93557.44;;;7.80;90.80
10466;BME280;5280;42.600;23.556;2024-03-08T10:26:11;93540.50;;;7.71;90.98
10466;BME280;5280;42.600;23.556;2024-03-08T10:28:42;93560.06;;;7.80;93.19
10466;BME280;5280;42.600;23.556;2024-03-08T10:31:09;93552.28;;;7.78;93.08
10466;BME280;5280;42.600;23.556;2024-03-08T10:33:37;93556.84;;;7.62;91.63
10466;BME280;5280;42.600;23.556;2024-03-08T10:36:06;93556.91;;;7.75;91.55
10466;BME280;5280;42.600;23.556;2024-03-08T10:38:35;93552.50;;;7.75;94.62
10466;BME280;5280;42.600;23.556;2024-03-08T10:41:04;93541.03;;;7.76;94.50
10466;BME280;5280;42.600;23.556;2024-03-08T10:43:35;93553.53;;;7.73;95.30
10466;BME280;5280;42.600;23.556;2024-03-08T10:46:19;93536.88;;;7.72;95.03
10466;BME280;5280;42.600;23.556;2024-03-08T10:48:49;93545.06;;;7.95;95.33
10466;BME280;5280;42.600;23.556;2024-03-08T10:51:19;93522.94;;;7.85;93.89
10466;BME280;5280;42.600;23.556;2024-03-08T10:53:47;93541.81;;;8.04;93.28
10466;BME280;5280;42.600;23.556;2024-03-08T10:56:16;93537.41;;;8.04;94.73
10466;BME280;5280;42.600;23.556;2024-03-08T10:58:44;93545.38;;;8.03;93.04
10466;BME280;5280;42.600;23.556;2024-03-08T11:01:14;93543.81;;;8.00;90.88
10466;BME280;5280;42.600;23.556;2024-03-08T11:03:45;93524.31;;;8.03;92.44
10466;BME280;5280;42.600;23.556;2024-03-08T11:06:15;93520.44;;;8.08;93.06
10466;BME280;5280;42.600;23.556;2024-03-08T11:08:43;93522.34;;;8.19;93.55
10466;BME280;5280;42.600;23.556;2024-03-08T11:11:24;93522.03;;;8.23;93.09
10466;BME280;5280;42.600;23.556;2024-03-08T11:13:53;93523.09;;;8.21;93.65
10466;BME280;5280;42.600;23.556;2024-03-08T11:16:37;93517.84;;;8.21;92.49
10466;BME280;5280;42.600;23.556;2024-03-08T11:19:24;93505.28;;;8.12;91.48
10466;BME280;5280;42.600;23.556;2024-03-08T11:22:03;93514.25;;;8.22;90.81
10466;BME280;5280;42.600;23.556;2024-03-08T11:24:39;93512.13;;;8.27;89.06
10466;BME280;5280;42.600;23.556;2024-03-08T11:27:07;93528.28;;;8.48;89.73
10466;BME280;5280;42.600;23.556;2024-03-08T11:29:38;93516.50;;;8.53;90.39
10466;BME280;5280;42.600;23.556;2024-03-08T11:32:11;93521.44;;;8.58;89.72
10466;BME280;5280;42.600;23.556;2024-03-08T11:34:40;93508.41;;;8.56;90.23
10466;BME280;5280;42.600;23.556;2024-03-08T11:37:12;93504.28;;;8.65;90.97
10466;BME280;5280;42.600;23.556;2024-03-08T11:39:41;93506.91;;;8.65;90.30
10466;BME280;5280;42.600;23.556;2024-03-08T11:42:13;93502.16;;;8.70;89.76
10466;BME280;5280;42.600;23.556;2024-03-08T11:44:41;93507.81;;;8.77;89.81
10466;BME280;5280;42.600;23.556;2024-03-08T11:47:11;93508.03;;;8.86;89.60
10466;BME280;5280;42.600;23.556;2024-03-08T11:49:38;93494.72;;;8.88;88.36
10466;BME280;5280;42.600;23.556;2024-03-08T11:52:10;93480.41;;;8.79;85.57
10466;BME280;5280;42.600;23.556;2024-03-08T11:54:39;93509.31;;;8.81;83.47
10466;BME280;5280;42.600;23.556;2024-03-08T11:57:06;93494.22;;;8.83;87.93
10466;BME280;5280;42.600;23.556;2024-03-08T11:59:35;93436.53;;;8.54;88.72
10466;BME280;5280;42.600;23.556;2024-03-08T12:02:03;93503.66;;;8.98;92.05
10466;BME280;5280;42.600;23.556;2024-03-08T12:04:32;93505.97;;;9.02;90.13
10466;BME280;5280;42.600;23.556;2024-03-08T12:07:01;93506.53;;;8.95;87.59
10466;BME280;5280;42.600;23.556;2024-03-08T12:09:34;93508.59;;;9.15;85.59
10466;BME280;5280;42.600;23.556;2024-03-08T12:12:02;93487.56;;;8.90;86.94
10466;BME280;5280;42.600;23.556;2024-03-08T12:14:30;93489.66;;;8.97;88.35
10466;BME280;5280;42.600;23.556;2024-03-08T12:16:57;93498.47;;;9.09;88.38
10466;BME280;5280;42.600;23.556;2024-03-08T12:19:26;93498.91;;;9.03;87.81
10466;BME280;5280;42.600;23.556;2024-03-08T12:21:55;93502.41;;;9.03;89.87
10466;BME280;5280;42.600;23.556;2024-03-08T12:24:22;93499.00;;;9.14;89.40
10466;BME280;5280;42.600;23.556;2024-03-08T12:26:49;93494.50;;;9.27;88.49
10466;BME280;5280;42.600;23.556;2024-03-08T12:29:18;93473.06;;;9.08;87.94
10466;BME280;5280;42.600;23.556;2024-03-08T12:31:49;93435.47;;;8.93;90.15
10466;BME280;5280;42.600;23.556;2024-03-08T12:34:17;93436.50;;;9.03;89.79
10466;BME280;5280;42.600;23.556;2024-03-08T12:36:45;93484.03;;;9.38;88.37
10466;BME280;5280;42.600;23.556;2024-03-08T12:39:16;93484.13;;;9.37;88.24
10466;BME280;5280;42.600;23.556;2024-03-08T12:41:48;93474.72;;;9.45;87.82
10466;BME280;5280;42.600;23.556;2024-03-08T12:44:17;93477.28;;;9.58;86.27
10466;BME280;5280;42.600;23.556;2024-03-08T12:46:44;93456.81;;;9.38;87.15
10466;BME280;5280;42.600;23.556;2024-03-08T12:49:11;93480.28;;;9.54;86.14
10466;BME280;5280;42.600;23.556;2024-03-08T12:51:43;93468.53;;;9.58;87.21
10466;BME280;5280;42.600;23.556;2024-03-08T12:54:10;93464.28;;;9.44;86.81
10466;BME280;5280;42.600;23.556;2024-03-08T12:56:39;93405.28;;;9.10;87.02
10466;BME280;5280;42.600;23.556;2024-03-08T12:59:07;93473.47;;;9.38;86.75
10466;BME280;5280;42.600;23.556;2024-03-08T13:01:35;93417.00;;;9.06;86.14
10466;BME280;5280;42.600;23.556;2024-03-08T13:04:03;93452.97;;;9.31;85.68
10466;BME280;5280;42.600;23.556;2024-03-08T13:06:32;93461.03;;;9.40;85.10
10466;BME280;5280;42.600;23.556;2024-03-08T13:09:00;93386.59;;;8.89;85.74
10466;BME280;5280;42.600;23.556;2024-03-08T13:11:37;93462.03;;;9.50;84.03
10466;BME280;5280;42.600;23.556;2024-03-08T13:14:05;93443.13;;;9.33;82.76
10466;BME280;5280;42.600;23.556;2024-03-08T13:16:32;93415.81;;;9.10;86.47
10466;BME280;5280;42.600;23.556;2024-03-08T13:19:03;93445.66;;;9.34;85.35